首页
METAR-TAF:

METAR-TAF

机场 :

拉紹德封, 瑞士

纬度: 47-05-03N, 经度: 006-47-37E, 海拔: 1027米

当前天气观测

该预报发布于18分钟前的17:50 UTC
风速3节,风向多变
温度 28°C
湿度 40%
气压 1022 hPa
能见度10公里或以上
1500米以下无云,无积雨云

METAR: LSGC 231750Z AUTO VRB03KT CAVOK 28/13 Q1022

时间: 20:08 (18:08 UTC)

预报

该预报发布于3小时和43分钟前的14:25 UTC
预报有效从23日的 15点(UTC)到 23日的 24点(UTC)
风速3节,风向多变
能见度10公里或以上
1500米以下无云,无积雨云

TAF: LSGC 231425Z 2315/2324 VRB03KT CAVOK

超过4000个机场的气象观测和天气预报(METAR&TAF报告)。

可查询的气象台以黄色和红色小点在地图上表示。

将鼠标移到小点上方,可查看气象台名称。

然后点击查看天气观测和预报。

如需切换地图:点击带黑十字的绿色按钮放大地图;点击带横线的绿色按钮缩小地图;或者点击绿色箭头查看邻近地区的地图。


METAR-TAF: